sensor_id;sensor_type;location;lat;lon;timestamp;temperature;humidity
11112;DHT22;5609;49.466;8.468;2023-01-29T00:00:20;1.00;99.90
11112;DHT22;5609;49.466;8.468;2023-01-29T00:02:47;1.00;99.90
11112;DHT22;5609;49.466;8.468;2023-01-29T00:05:14;1.00;99.90
11112;DHT22;5609;49.466;8.468;2023-01-29T00:07:40;1.00;99.90
11112;DHT22;5609;49.466;8.468;2023-01-29T00:10:10;1.00;99.90
11112;DHT22;5609;49.466;8.468;2023-01-29T00:12:37;1.00;99.90
11112;DHT22;5609;49.466;8.468;2023-01-29T00:15:04;1.00;99.90
11112;DHT22;5609;49.466;8.468;2023-01-29T00:17:31;0.90;99.90
11112;DHT22;5609;49.466;8.468;2023-01-29T00:19:58;0.90;99.90
11112;DHT22;5609;49.466;8.468;2023-01-29T00:22:24;0.80;99.90
11112;DHT22;5609;49.466;8.468;2023-01-29T00:24:51;0.90;99.90
11112;DHT22;5609;49.466;8.468;2023-01-29T00:27:19;0.90;99.90
11112;DHT22;5609;49.466;8.468;2023-01-29T00:29:46;0.80;99.90
11112;DHT22;5609;49.466;8.468;2023-01-29T00:32:33;0.80;99.90
11112;DHT22;5609;49.466;8.468;2023-01-29T00:35:00;0.80;99.90
11112;DHT22;5609;49.466;8.468;2023-01-29T00:37:27;0.70;99.90
11112;DHT22;5609;49.466;8.468;2023-01-29T00:39:53;0.60;99.90
11112;DHT22;5609;49.466;8.468;2023-01-29T00:45:07;0.60;99.90
11112;DHT22;5609;49.466;8.468;2023-01-29T00:47:34;0.50;99.90
11112;DHT22;5609;49.466;8.468;2023-01-29T00:50:02;0.40;99.90
11112;DHT22;5609;49.466;8.468;2023-01-29T00:52:29;0.40;99.90
11112;DHT22;5609;49.466;8.468;2023-01-29T00:54:58;0.30;99.90
11112;DHT22;5609;49.466;8.468;2023-01-29T00:57:28;0.30;99.90
11112;DHT22;5609;49.466;8.468;2023-01-29T00:59:55;0.30;99.90
11112;DHT22;5609;49.466;8.468;2023-01-29T01:02:22;0.30;99.90
11112;DHT22;5609;49.466;8.468;2023-01-29T01:05:09;0.30;99.90
11112;DHT22;5609;49.466;8.468;2023-01-29T01:07:38;0.20;99.90
11112;DHT22;5609;49.466;8.468;2023-01-29T01:10:06;0.30;99.90
11112;DHT22;5609;49.466;8.468;2023-01-29T01:12:50;0.30;99.90
11112;DHT22;5609;49.466;8.468;2023-01-29T01:15:18;0.40;99.90
11112;DHT22;5609;49.466;8.468;2023-01-29T01:17:45;0.40;99.90
11112;DHT22;5609;49.466;8.468;2023-01-29T01:20:13;0.50;99.90
11112;DHT22;5609;49.466;8.468;2023-01-29T01:22:40;0.50;99.90
11112;DHT22;5609;49.466;8.468;2023-01-29T01:25:08;0.50;99.90
11112;DHT22;5609;49.466;8.468;2023-01-29T01:27:35;0.60;99.90
11112;DHT22;5609;49.466;8.468;2023-01-29T01:30:09;0.60;99.90
11112;DHT22;5609;49.466;8.468;2023-01-29T01:32:36;0.60;99.90
11112;DHT22;5609;49.466;8.468;2023-01-29T01:35:04;0.60;99.90
11112;DHT22;5609;49.466;8.468;2023-01-29T01:37:31;0.70;99.90
11112;DHT22;5609;49.466;8.468;2023-01-29T01:40:02;0.60;99.90
11112;DHT22;5609;49.466;8.468;2023-01-29T01:42:30;0.60;99.90
11112;DHT22;5609;49.466;8.468;2023-01-29T01:44:58;0.60;99.90
11112;DHT22;5609;49.466;8.468;2023-01-29T01:47:37;0.70;99.90
11112;DHT22;5609;49.466;8.468;2023-01-29T01:50:09;0.70;99.90
11112;DHT22;5609;49.466;8.468;2023-01-29T01:52:41;0.70;99.90
11112;DHT22;5609;49.466;8.468;2023-01-29T01:55:12;0.60;99.90
11112;DHT22;5609;49.466;8.468;2023-01-29T01:57:41;0.50;99.90
11112;DHT22;5609;49.466;8.468;2023-01-29T02:00:12;0.50;99.90
11112;DHT22;5609;49.466;8.468;2023-01-29T02:02:43;0.50;99.90
11112;DHT22;5609;49.466;8.468;2023-01-29T02:05:29;0.50;99.90
11112;DHT22;5609;49.466;8.468;2023-01-29T02:08:14;0.50;99.90
11112;DHT22;5609;49.466;8.468;2023-01-29T02:11:00;0.50;99.90
11112;DHT22;5609;49.466;8.468;2023-01-29T02:13:27;0.50;99.90
11112;DHT22;5609;49.466;8.468;2023-01-29T02:15:54;0.50;99.90
11112;DHT22;5609;49.466;8.468;2023-01-29T02:18:22;0.50;99.90
11112;DHT22;5609;49.466;8.468;2023-01-29T02:21:01;0.60;99.90
11112;DHT22;5609;49.466;8.468;2023-01-29T02:23:53;0.60;99.90
11112;DHT22;5609;49.466;8.468;2023-01-29T02:26:39;0.60;99.90
11112;DHT22;5609;49.466;8.468;2023-01-29T02:29:16;0.60;99.90
11112;DHT22;5609;49.466;8.468;2023-01-29T02:31:58;0.60;99.90
11112;DHT22;5609;49.466;8.468;2023-01-29T02:34:37;0.60;99.90
11112;DHT22;5609;49.466;8.468;2023-01-29T02:37:25;0.50;99.90
11112;DHT22;5609;49.466;8.468;2023-01-29T02:40:00;0.40;99.90
11112;DHT22;5609;49.466;8.468;2023-01-29T02:42:34;0.30;99.90
11112;DHT22;5609;49.466;8.468;2023-01-29T02:45:09;0.30;99.90
11112;DHT22;5609;49.466;8.468;2023-01-29T02:47:42;0.20;99.90
11112;DHT22;5609;49.466;8.468;2023-01-29T02:50:15;0.20;99.90
11112;DHT22;5609;49.466;8.468;2023-01-29T02:52:50;0.10;99.90
11112;DHT22;5609;49.466;8.468;2023-01-29T02:55:26;0.00;99.90
11112;DHT22;5609;49.466;8.468;2023-01-29T03:00:32;-0.10;99.90
11112;DHT22;5609;49.466;8.468;2023-01-29T03:03:05;-0.10;99.90
11112;DHT22;5609;49.466;8.468;2023-01-29T03:05:38;-0.10;99.90
11112;DHT22;5609;49.466;8.468;2023-01-29T03:08:10;-0.10;99.90
11112;DHT22;5609;49.466;8.468;2023-01-29T03:10:39;-0.10;99.90
11112;DHT22;5609;49.466;8.468;2023-01-29T03:13:13;-0.20;99.90
11112;DHT22;5609;49.466;8.468;2023-01-29T03:15:44;-0.20;99.90
11112;DHT22;5609;49.466;8.468;2023-01-29T03:18:15;-0.20;99.90
11112;DHT22;5609;49.466;8.468;2023-01-29T03:20:46;-0.30;99.90
11112;DHT22;5609;49.466;8.468;2023-01-29T03:23:16;-0.30;99.90
11112;DHT22;5609;49.466;8.468;2023-01-29T03:25:50;-0.50;99.90
11112;DHT22;5609;49.466;8.468;2023-01-29T03:28:36;-0.60;99.90
11112;DHT22;5609;49.466;8.468;2023-01-29T03:31:25;-0.70;99.90
11112;DHT22;5609;49.466;8.468;2023-01-29T03:34:12;-0.60;99.90
11112;DHT22;5609;49.466;8.468;2023-01-29T03:36:43;-0.70;99.90
11112;DHT22;5609;49.466;8.468;2023-01-29T03:39:14;-0.70;99.90
11112;DHT22;5609;49.466;8.468;2023-01-29T03:41:46;-0.70;99.90
11112;DHT22;5609;49.466;8.468;2023-01-29T03:44:17;-0.70;99.90
11112;DHT22;5609;49.466;8.468;2023-01-29T03:46:51;-0.70;99.90
11112;DHT22;5609;49.466;8.468;2023-01-29T03:49:26;-0.70;99.90
11112;DHT22;5609;49.466;8.468;2023-01-29T03:51:59;-0.70;99.90
11112;DHT22;5609;49.466;8.468;2023-01-29T03:54:32;-0.60;99.90
11112;DHT22;5609;49.466;8.468;2023-01-29T03:57:04;-0.60;99.90
11112;DHT22;5609;49.466;8.468;2023-01-29T03:59:47;-0.50;99.90
11112;DHT22;5609;49.466;8.468;2023-01-29T04:02:22;-0.40;99.90
11112;DHT22;5609;49.466;8.468;2023-01-29T04:04:56;-0.40;99.90
11112;DHT22;5609;49.466;8.468;2023-01-29T04:07:24;-0.30;99.90
11112;DHT22;5609;49.466;8.468;2023-01-29T04:09:55;-0.30;99.90
11112;DHT22;5609;49.466;8.468;2023-01-29T04:12:25;-0.30;99.90
11112;DHT22;5609;49.466;8.468;2023-01-29T04:14:55;-0.20;99.90
11112;DHT22;5609;49.466;8.468;2023-01-29T04:17:35;-0.20;99.90
11112;DHT22;5609;49.466;8.468;2023-01-29T04:20:03;-0.10;99.90
11112;DHT22;5609;49.466;8.468;2023-01-29T04:22:32;-0.10;99.90
11112;DHT22;5609;49.466;8.468;2023-01-29T04:25:02;-0.10;99.90
11112;DHT22;5609;49.466;8.468;2023-01-29T04:27:39;0.00;99.90
11112;DHT22;5609;49.466;8.468;2023-01-29T04:30:20;0.00;99.90
11112;DHT22;5609;49.466;8.468;2023-01-29T04:32:56;0.10;99.90
11112;DHT22;5609;49.466;8.468;2023-01-29T04:35:30;0.00;99.90
11112;DHT22;5609;49.466;8.468;2023-01-29T04:38:06;0.00;99.90
11112;DHT22;5609;49.466;8.468;2023-01-29T04:40:42;0.00;99.90
11112;DHT22;5609;49.466;8.468;2023-01-29T04:43:17;0.00;99.90
11112;DHT22;5609;49.466;8.468;2023-01-29T04:45:52;-0.10;99.90
11112;DHT22;5609;49.466;8.468;2023-01-29T04:48:29;0.00;99.90
11112;DHT22;5609;49.466;8.468;2023-01-29T04:51:04;-0.10;99.90
11112;DHT22;5609;49.466;8.468;2023-01-29T04:53:37;-0.10;99.90
11112;DHT22;5609;49.466;8.468;2023-01-29T04:56:10;-0.10;99.90
11112;DHT22;5609;49.466;8.468;2023-01-29T04:58:45;-0.10;99.90
11112;DHT22;5609;49.466;8.468;2023-01-29T05:01:14;-0.20;99.90
11112;DHT22;5609;49.466;8.468;2023-01-29T05:03:45;-0.20;99.90
11112;DHT22;5609;49.466;8.468;2023-01-29T05:06:15;-0.30;99.90
11112;DHT22;5609;49.466;8.468;2023-01-29T05:08:43;-0.30;99.90
11112;DHT22;5609;49.466;8.468;2023-01-29T05:11:10;-0.40;99.90
11112;DHT22;5609;49.466;8.468;2023-01-29T05:13:38;-0.30;99.90
11112;DHT22;5609;49.466;8.468;2023-01-29T05:16:11;-0.40;99.90
11112;DHT22;5609;49.466;8.468;2023-01-29T05:18:40;-0.40;99.90
11112;DHT22;5609;49.466;8.468;2023-01-29T05:21:08;-0.40;99.90
11112;DHT22;5609;49.466;8.468;2023-01-29T05:23:35;-0.40;99.90
11112;DHT22;5609;49.466;8.468;2023-01-29T05:26:03;-0.40;99.90
11112;DHT22;5609;49.466;8.468;2023-01-29T05:28:30;-0.40;99.90
11112;DHT22;5609;49.466;8.468;2023-01-29T05:30:56;-0.40;99.90
11112;DHT22;5609;49.466;8.468;2023-01-29T05:33:25;-0.40;99.90
11112;DHT22;5609;49.466;8.468;2023-01-29T05:35:52;-0.40;99.90
11112;DHT22;5609;49.466;8.468;2023-01-29T05:38:21;-0.40;99.90
11112;DHT22;5609;49.466;8.468;2023-01-29T05:40:48;-0.30;99.90
11112;DHT22;5609;49.466;8.468;2023-01-29T05:43:17;-0.30;99.90
11112;DHT22;5609;49.466;8.468;2023-01-29T05:45:51;-0.30;99.90
11112;DHT22;5609;49.466;8.468;2023-01-29T05:48:19;-0.30;99.90
11112;DHT22;5609;49.466;8.468;2023-01-29T05:50:46;-0.30;99.90
11112;DHT22;5609;49.466;8.468;2023-01-29T05:53:13;-0.20;99.90
11112;DHT22;5609;49.466;8.468;2023-01-29T05:55:44;-0.20;99.90
11112;DHT22;5609;49.466;8.468;2023-01-29T05:58:11;-0.10;99.90
11112;DHT22;5609;49.466;8.468;2023-01-29T06:00:38;0.00;99.90
11112;DHT22;5609;49.466;8.468;2023-01-29T06:03:05;0.00;99.90
11112;DHT22;5609;49.466;8.468;2023-01-29T06:05:32;0.10;99.90
11112;DHT22;5609;49.466;8.468;2023-01-29T06:07:58;0.10;99.90
11112;DHT22;5609;49.466;8.468;2023-01-29T06:10:25;0.20;99.90
11112;DHT22;5609;49.466;8.468;2023-01-29T06:12:53;0.30;99.90
11112;DHT22;5609;49.466;8.468;2023-01-29T06:15:20;0.30;99.90
11112;DHT22;5609;49.466;8.468;2023-01-29T06:17:47;0.30;99.90
11112;DHT22;5609;49.466;8.468;2023-01-29T06:20:13;0.30;99.90
11112;DHT22;5609;49.466;8.468;2023-01-29T06:22:40;0.30;99.90
11112;DHT22;5609;49.466;8.468;2023-01-29T06:25:07;0.30;99.90
11112;DHT22;5609;49.466;8.468;2023-01-29T06:27:34;0.30;99.90
11112;DHT22;5609;49.466;8.468;2023-01-29T06:30:03;0.20;99.90
11112;DHT22;5609;49.466;8.468;2023-01-29T06:32:30;0.20;99.90
11112;DHT22;5609;49.466;8.468;2023-01-29T06:34:57;0.30;99.90
11112;DHT22;5609;49.466;8.468;2023-01-29T06:37:24;0.20;99.90
11112;DHT22;5609;49.466;8.468;2023-01-29T06:39:51;0.30;99.90
11112;DHT22;5609;49.466;8.468;2023-01-29T06:42:17;0.30;99.90
11112;DHT22;5609;49.466;8.468;2023-01-29T06:44:45;0.40;99.90
11112;DHT22;5609;49.466;8.468;2023-01-29T06:47:13;0.30;99.90
11112;DHT22;5609;49.466;8.468;2023-01-29T06:49:39;0.30;99.90
11112;DHT22;5609;49.466;8.468;2023-01-29T06:52:06;0.30;99.90
11112;DHT22;5609;49.466;8.468;2023-01-29T06:54:33;0.30;99.90
11112;DHT22;5609;49.466;8.468;2023-01-29T06:56:59;0.30;99.90
11112;DHT22;5609;49.466;8.468;2023-01-29T06:59:26;0.30;99.90
11112;DHT22;5609;49.466;8.468;2023-01-29T07:01:53;0.30;99.90
11112;DHT22;5609;49.466;8.468;2023-01-29T07:04:21;0.20;99.90
11112;DHT22;5609;49.466;8.468;2023-01-29T07:06:48;0.20;99.90
11112;DHT22;5609;49.466;8.468;2023-01-29T07:09:14;0.30;99.90
11112;DHT22;5609;49.466;8.468;2023-01-29T07:11:41;0.20;99.90
11112;DHT22;5609;49.466;8.468;2023-01-29T07:14:08;0.20;99.90
11112;DHT22;5609;49.466;8.468;2023-01-29T07:16:35;0.20;99.90
11112;DHT22;5609;49.466;8.468;2023-01-29T07:19:01;0.30;99.90
11112;DHT22;5609;49.466;8.468;2023-01-29T07:21:29;0.30;99.90
11112;DHT22;5609;49.466;8.468;2023-01-29T07:23:56;0.40;99.90
11112;DHT22;5609;49.466;8.468;2023-01-29T07:26:23;0.40;99.90
11112;DHT22;5609;49.466;8.468;2023-01-29T07:28:49;0.50;99.90
11112;DHT22;5609;49.466;8.468;2023-01-29T07:31:16;0.50;99.90
11112;DHT22;5609;49.466;8.468;2023-01-29T07:33:43;0.50;99.90
11112;DHT22;5609;49.466;8.468;2023-01-29T07:36:10;0.50;99.90
11112;DHT22;5609;49.466;8.468;2023-01-29T07:38:38;0.50;99.90
11112;DHT22;5609;49.466;8.468;2023-01-29T07:41:05;0.50;99.90
11112;DHT22;5609;49.466;8.468;2023-01-29T07:43:32;0.50;99.90
11112;DHT22;5609;49.466;8.468;2023-01-29T07:46:01;0.50;99.90
11112;DHT22;5609;49.466;8.468;2023-01-29T07:48:28;0.50;99.90
11112;DHT22;5609;49.466;8.468;2023-01-29T07:50:55;0.40;99.90
11112;DHT22;5609;49.466;8.468;2023-01-29T07:53:22;0.40;99.90
11112;DHT22;5609;49.466;8.468;2023-01-29T07:55:50;0.40;99.90
11112;DHT22;5609;49.466;8.468;2023-01-29T07:58:17;0.40;99.90
11112;DHT22;5609;49.466;8.468;2023-01-29T08:00:44;0.40;99.90
11112;DHT22;5609;49.466;8.468;2023-01-29T08:03:12;0.40;99.90
11112;DHT22;5609;49.466;8.468;2023-01-29T08:05:40;0.40;99.90
11112;DHT22;5609;49.466;8.468;2023-01-29T08:08:07;0.40;99.90
11112;DHT22;5609;49.466;8.468;2023-01-29T08:10:34;0.50;99.90
11112;DHT22;5609;49.466;8.468;2023-01-29T08:13:03;0.40;99.90
11112;DHT22;5609;49.466;8.468;2023-01-29T08:15:30;0.50;99.90
11112;DHT22;5609;49.466;8.468;2023-01-29T08:17:57;0.60;99.90
11112;DHT22;5609;49.466;8.468;2023-01-29T08:20:24;0.60;99.90
11112;DHT22;5609;49.466;8.468;2023-01-29T08:22:58;0.70;99.90
11112;DHT22;5609;49.466;8.468;2023-01-29T08:25:25;0.80;99.90
11112;DHT22;5609;49.466;8.468;2023-01-29T08:27:52;0.90;99.90
11112;DHT22;5609;49.466;8.468;2023-01-29T08:30:20;1.00;99.90
11112;DHT22;5609;49.466;8.468;2023-01-29T08:32:47;1.10;99.90
11112;DHT22;5609;49.466;8.468;2023-01-29T08:35:14;1.20;99.90
11112;DHT22;5609;49.466;8.468;2023-01-29T08:37:40;1.40;99.90
11112;DHT22;5609;49.466;8.468;2023-01-29T08:40:08;1.50;99.90
11112;DHT22;5609;49.466;8.468;2023-01-29T08:42:37;1.60;99.90
11112;DHT22;5609;49.466;8.468;2023-01-29T08:45:06;1.70;99.90
11112;DHT22;5609;49.466;8.468;2023-01-29T08:47:35;1.90;99.90
11112;DHT22;5609;49.466;8.468;2023-01-29T08:50:01;2.00;99.90
11112;DHT22;5609;49.466;8.468;2023-01-29T08:52:28;2.10;99.90
11112;DHT22;5609;49.466;8.468;2023-01-29T08:54:55;2.20;99.90
11112;DHT22;5609;49.466;8.468;2023-01-29T08:57:22;2.20;99.90
11112;DHT22;5609;49.466;8.468;2023-01-29T08:59:49;2.30;99.90
11112;DHT22;5609;49.466;8.468;2023-01-29T09:02:16;2.20;99.90
11112;DHT22;5609;49.466;8.468;2023-01-29T09:04:44;2.40;99.90
11112;DHT22;5609;49.466;8.468;2023-01-29T09:07:11;2.50;99.90
11112;DHT22;5609;49.466;8.468;2023-01-29T09:09:38;2.50;99.90
11112;DHT22;5609;49.466;8.468;2023-01-29T09:12:05;2.50;99.90
11112;DHT22;5609;49.466;8.468;2023-01-29T09:14:32;2.40;99.90
11112;DHT22;5609;49.466;8.468;2023-01-29T09:16:59;2.40;99.90
11112;DHT22;5609;49.466;8.468;2023-01-29T09:19:25;2.40;99.90
11112;DHT22;5609;49.466;8.468;2023-01-29T09:21:53;2.50;99.90
11112;DHT22;5609;49.466;8.468;2023-01-29T09:24:20;2.50;99.90
11112;DHT22;5609;49.466;8.468;2023-01-29T09:26:47;2.40;99.90
11112;DHT22;5609;49.466;8.468;2023-01-29T09:29:14;2.50;99.90
11112;DHT22;5609;49.466;8.468;2023-01-29T09:31:40;2.50;99.90
11112;DHT22;5609;49.466;8.468;2023-01-29T09:34:07;2.50;99.90
11112;DHT22;5609;49.466;8.468;2023-01-29T09:36:34;2.50;99.90
11112;DHT22;5609;49.466;8.468;2023-01-29T09:39:02;2.70;99.90
11112;DHT22;5609;49.466;8.468;2023-01-29T09:41:42;2.80;99.90
11112;DHT22;5609;49.466;8.468;2023-01-29T09:44:19;2.80;99.90
11112;DHT22;5609;49.466;8.468;2023-01-29T09:46:50;3.00;99.90
11112;DHT22;5609;49.466;8.468;2023-01-29T09:49:23;3.10;99.90
11112;DHT22;5609;49.466;8.468;2023-01-29T09:51:54;3.00;99.90
11112;DHT22;5609;49.466;8.468;2023-01-29T09:54:29;3.20;99.90
11112;DHT22;5609;49.466;8.468;2023-01-29T09:56:59;3.20;99.90
11112;DHT22;5609;49.466;8.468;2023-01-29T09:59:29;3.20;99.90
11112;DHT22;5609;49.466;8.468;2023-01-29T10:02:04;3.20;99.90
11112;DHT22;5609;49.466;8.468;2023-01-29T10:04:57;3.10;99.90
11112;DHT22;5609;49.466;8.468;2023-01-29T10:07:43;3.00;99.90
11112;DHT22;5609;49.466;8.468;2023-01-29T10:10:29;2.80;99.90
11112;DHT22;5609;49.466;8.468;2023-01-29T10:13:05;2.80;99.90
11112;DHT22;5609;49.466;8.468;2023-01-29T10:16:13;2.60;99.90
11112;DHT22;5609;49.466;8.468;2023-01-29T10:21:51;2.50;99.90
11112;DHT22;5609;49.466;8.468;2023-01-29T10:24:27;2.70;99.90
11112;DHT22;5609;49.466;8.468;2023-01-29T10:26:59;2.70;99.90
11112;DHT22;5609;49.466;8.468;2023-01-29T10:29:27;2.90;99.90
11112;DHT22;5609;49.466;8.468;2023-01-29T10:31:59;2.90;99.90
11112;DHT22;5609;49.466;8.468;2023-01-29T10:34:32;2.90;99.90
11112;DHT22;5609;49.466;8.468;2023-01-29T10:37:11;2.90;99.90
11112;DHT22;5609;49.466;8.468;2023-01-29T10:39:40;2.80;99.90
11112;DHT22;5609;49.466;8.468;2023-01-29T10:42:17;2.90;99.90
11112;DHT22;5609;49.466;8.468;2023-01-29T10:44:56;2.90;99.90
11112;DHT22;5609;49.466;8.468;2023-01-29T10:50:30;3.00;99.90
11112;DHT22;5609;49.466;8.468;2023-01-29T10:53:13;3.00;99.90
11112;DHT22;5609;49.466;8.468;2023-01-29T10:55:49;3.00;99.90
11112;DHT22;5609;49.466;8.468;2023-01-29T10:58:29;3.00;99.90
11112;DHT22;5609;49.466;8.468;2023-01-29T11:00:57;2.90;99.90
11112;DHT22;5609;49.466;8.468;2023-01-29T11:03:25;2.90;99.90
11112;DHT22;5609;49.466;8.468;2023-01-29T11:06:00;3.10;99.90
11112;DHT22;5609;49.466;8.468;2023-01-29T11:08:32;3.00;99.90
11112;DHT22;5609;49.466;8.468;2023-01-29T11:11:06;3.10;99.90
11112;DHT22;5609;49.466;8.468;2023-01-29T11:13:39;3.20;99.90
11112;DHT22;5609;49.466;8.468;2023-01-29T11:16:08;3.20;99.90
11112;DHT22;5609;49.466;8.468;2023-01-29T11:18:49;3.10;99.90
11112;DHT22;5609;49.466;8.468;2023-01-29T11:21:16;3.10;99.90
11112;DHT22;5609;49.466;8.468;2023-01-29T11:23:43;3.10;99.90
11112;DHT22;5609;49.466;8.468;2023-01-29T11:26:12;3.10;99.90
11112;DHT22;5609;49.466;8.468;2023-01-29T11:28:42;3.20;99.90
11112;DHT22;5609;49.466;8.468;2023-01-29T11:31:21;3.30;99.90
11112;DHT22;5609;49.466;8.468;2023-01-29T11:33:50;3.30;99.90
11112;DHT22;5609;49.466;8.468;2023-01-29T11:36:30;3.20;99.90
11112;DHT22;5609;49.466;8.468;2023-01-29T11:39:24;3.30;99.90
11112;DHT22;5609;49.466;8.468;2023-01-29T11:41:55;3.40;99.90
11112;DHT22;5609;49.466;8.468;2023-01-29T11:44:31;3.30;99.90
11112;DHT22;5609;49.466;8.468;2023-01-29T11:47:10;3.40;99.90
11112;DHT22;5609;49.466;8.468;2023-01-29T11:49:38;3.50;99.90
11112;DHT22;5609;49.466;8.468;2023-01-29T11:52:08;3.60;99.90
11112;DHT22;5609;49.466;8.468;2023-01-29T11:54:38;3.70;99.90
11112;DHT22;5609;49.466;8.468;2023-01-29T11:57:20;3.80;99.90
11112;DHT22;5609;49.466;8.468;2023-01-29T11:59:51;4.00;99.90
11112;DHT22;5609;49.466;8.468;2023-01-29T12:02:22;4.00;99.90
11112;DHT22;5609;49.466;8.468;2023-01-29T12:04:53;4.00;99.90
11112;DHT22;5609;49.466;8.468;2023-01-29T12:07:21;4.20;99.90
11112;DHT22;5609;49.466;8.468;2023-01-29T12:09:52;4.30;99.90
11112;DHT22;5609;49.466;8.468;2023-01-29T12:12:30;4.40;99.90
11112;DHT22;5609;49.466;8.468;2023-01-29T12:15:21;4.30;99.90
11112;DHT22;5609;49.466;8.468;2023-01-29T12:18:03;4.40;99.90
11112;DHT22;5609;49.466;8.468;2023-01-29T12:20:36;4.70;99.90
11112;DHT22;5609;49.466;8.468;2023-01-29T12:23:13;5.10;99.90
11112;DHT22;5609;49.466;8.468;2023-01-29T12:25:46;5.10;99.90
11112;DHT22;5609;49.466;8.468;2023-01-29T12:28:27;5.20;99.90
11112;DHT22;5609;49.466;8.468;2023-01-29T12:31:10;5.40;99.90
11112;DHT22;5609;49.466;8.468;2023-01-29T12:33:45;5.40;99.90
11112;DHT22;5609;49.466;8.468;2023-01-29T12:36:18;5.60;99.90
11112;DHT22;5609;49.466;8.468;2023-01-29T12:38:47;5.80;99.90
11112;DHT22;5609;49.466;8.468;2023-01-29T12:41:27;5.70;99.90
11112;DHT22;5609;49.466;8.468;2023-01-29T12:43:58;6.00;99.90
11112;DHT22;5609;49.466;8.468;2023-01-29T12:46:29;6.40;99.90
11112;DHT22;5609;49.466;8.468;2023-01-29T12:49:00;6.60;99.90
11112;DHT22;5609;49.466;8.468;2023-01-29T12:51:32;6.50;97.30
11112;DHT22;5609;49.466;8.468;2023-01-29T12:54:04;6.30;99.00
11112;DHT22;5609;49.466;8.468;2023-01-29T12:56:35;5.90;99.70
11112;DHT22;5609;49.466;8.468;2023-01-29T12:59:11;5.10;99.90
11112;DHT22;5609;49.466;8.468;2023-01-29T13:01:45;5.00;99.90
11112;DHT22;5609;49.466;8.468;2023-01-29T13:04:17;5.30;99.90
11112;DHT22;5609;49.466;8.468;2023-01-29T13:06:48;5.30;99.90
11112;DHT22;5609;49.466;8.468;2023-01-29T13:09:21;5.20;99.90
11112;DHT22;5609;49.466;8.468;2023-01-29T13:11:51;5.50;99.90
11112;DHT22;5609;49.466;8.468;2023-01-29T13:14:21;5.90;99.90
11112;DHT22;5609;49.466;8.468;2023-01-29T13:16:54;6.20;99.90
11112;DHT22;5609;49.466;8.468;2023-01-29T13:19:26;5.90;99.90
11112;DHT22;5609;49.466;8.468;2023-01-29T13:21:55;5.70;99.90
11112;DHT22;5609;49.466;8.468;2023-01-29T13:24:24;5.80;99.90
11112;DHT22;5609;49.466;8.468;2023-01-29T13:26:53;5.50;99.90
11112;DHT22;5609;49.466;8.468;2023-01-29T13:29:22;5.60;99.90
11112;DHT22;5609;49.466;8.468;2023-01-29T13:31:51;5.90;99.90
11112;DHT22;5609;49.466;8.468;2023-01-29T13:34:22;6.00;99.90
11112;DHT22;5609;49.466;8.468;2023-01-29T13:36:51;6.40;99.90
11112;DHT22;5609;49.466;8.468;2023-01-29T13:39:22;6.80;97.80
11112;DHT22;5609;49.466;8.468;2023-01-29T13:41:51;6.80;94.00
11112;DHT22;5609;49.466;8.468;2023-01-29T13:44:21;7.20;93.60
11112;DHT22;5609;49.466;8.468;2023-01-29T13:46:54;7.30;90.70
11112;DHT22;5609;49.466;8.468;2023-01-29T13:49:29;7.70;89.30
11112;DHT22;5609;49.466;8.468;2023-01-29T13:51:57;7.80;79.40
11112;DHT22;5609;49.466;8.468;2023-01-29T13:54:25;7.70;77.50
11112;DHT22;5609;49.466;8.468;2023-01-29T13:56:58;8.00;76.70
11112;DHT22;5609;49.466;8.468;2023-01-29T13:59:50;7.70;72.10
11112;DHT22;5609;49.466;8.468;2023-01-29T14:02:24;7.60;80.10
11112;DHT22;5609;49.466;8.468;2023-01-29T14:04:53;7.30;79.60
11112;DHT22;5609;49.466;8.468;2023-01-29T14:07:48;6.90;90.40
11112;DHT22;5609;49.466;8.468;2023-01-29T14:10:18;7.20;99.90
11112;DHT22;5609;49.466;8.468;2023-01-29T14:12:47;8.10;99.90
11112;DHT22;5609;49.466;8.468;2023-01-29T14:15:29;8.90;99.90
11112;DHT22;5609;49.466;8.468;2023-01-29T15:13:15;9.80;99.90
11112;DHT22;5609;49.466;8.468;2023-01-29T15:15:48;9.40;36.80
11112;DHT22;5609;49.466;8.468;2023-01-29T15:18:19;9.20;37.60
11112;DHT22;5609;49.466;8.468;2023-01-29T15:20:49;8.90;42.00
11112;DHT22;5609;49.466;8.468;2023-01-29T15:23:25;8.60;44.00
11112;DHT22;5609;49.466;8.468;2023-01-29T15:25:54;8.70;46.50
11112;DHT22;5609;49.466;8.468;2023-01-29T15:28:22;8.90;45.20
11112;DHT22;5609;49.466;8.468;2023-01-29T15:30:51;9.00;43.60
11112;DHT22;5609;49.466;8.468;2023-01-29T15:33:19;8.90;42.70
11112;DHT22;5609;49.466;8.468;2023-01-29T15:35:47;8.60;46.50
11112;DHT22;5609;49.466;8.468;2023-01-29T15:38:16;8.00;52.90
11112;DHT22;5609;49.466;8.468;2023-01-29T15:40:52;7.30;63.90
11112;DHT22;5609;49.466;8.468;2023-01-29T15:43:22;6.60;83.80
11112;DHT22;5609;49.466;8.468;2023-01-29T15:45:50;6.10;95.10
11112;DHT22;5609;49.466;8.468;2023-01-29T15:48:20;5.60;99.90
11112;DHT22;5609;49.466;8.468;2023-01-29T15:50:53;5.30;99.90
11112;DHT22;5609;49.466;8.468;2023-01-29T15:53:22;5.20;99.90
11112;DHT22;5609;49.466;8.468;2023-01-29T15:55:52;5.30;99.90
11112;DHT22;5609;49.466;8.468;2023-01-29T15:58:26;5.10;99.90
11112;DHT22;5609;49.466;8.468;2023-01-29T16:00:55;4.80;99.90
11112;DHT22;5609;49.466;8.468;2023-01-29T16:03:23;4.50;99.90
11112;DHT22;5609;49.466;8.468;2023-01-29T16:05:51;4.30;99.90
11112;DHT22;5609;49.466;8.468;2023-01-29T16:08:19;3.90;99.90
11112;DHT22;5609;49.466;8.468;2023-01-29T16:10:49;3.70;99.90
11112;DHT22;5609;49.466;8.468;2023-01-29T16:13:21;3.40;99.90
11112;DHT22;5609;49.466;8.468;2023-01-29T16:15:55;3.20;99.90
11112;DHT22;5609;49.466;8.468;2023-01-29T16:18:24;3.00;99.90
11112;DHT22;5609;49.466;8.468;2023-01-29T16:20:55;2.80;99.90
11112;DHT22;5609;49.466;8.468;2023-01-29T16:23:25;2.70;99.90
11112;DHT22;5609;49.466;8.468;2023-01-29T16:25:54;2.60;99.90
11112;DHT22;5609;49.466;8.468;2023-01-29T16:28:23;2.50;99.90
11112;DHT22;5609;49.466;8.468;2023-01-29T16:30:54;2.30;99.90
11112;DHT22;5609;49.466;8.468;2023-01-29T16:33:29;2.30;99.90
11112;DHT22;5609;49.466;8.468;2023-01-29T16:43:51;2.10;99.90
11112;DHT22;5609;49.466;8.468;2023-01-29T16:46:23;1.70;99.90
11112;DHT22;5609;49.466;8.468;2023-01-29T16:48:50;1.70;99.90
11112;DHT22;5609;49.466;8.468;2023-01-29T16:51:22;1.60;99.90
11112;DHT22;5609;49.466;8.468;2023-01-29T16:54:10;1.60;99.90
11112;DHT22;5609;49.466;8.468;2023-01-29T16:56:43;1.50;99.90
11112;DHT22;5609;49.466;8.468;2023-01-29T16:59:17;1.40;99.90
11112;DHT22;5609;49.466;8.468;2023-01-29T17:01:44;1.40;99.90
11112;DHT22;5609;49.466;8.468;2023-01-29T17:04:13;1.30;99.90
11112;DHT22;5609;49.466;8.468;2023-01-29T17:06:43;1.30;99.90
11112;DHT22;5609;49.466;8.468;2023-01-29T17:09:19;1.20;99.90
11112;DHT22;5609;49.466;8.468;2023-01-29T17:11:46;1.20;99.90
11112;DHT22;5609;49.466;8.468;2023-01-29T17:14:18;1.10;99.90
11112;DHT22;5609;49.466;8.468;2023-01-29T17:16:49;1.00;99.90
11112;DHT22;5609;49.466;8.468;2023-01-29T17:19:17;1.00;99.90
11112;DHT22;5609;49.466;8.468;2023-01-29T17:21:45;0.90;99.90
11112;DHT22;5609;49.466;8.468;2023-01-29T17:24:12;0.90;99.90
11112;DHT22;5609;49.466;8.468;2023-01-29T17:26:39;0.80;99.90
11112;DHT22;5609;49.466;8.468;2023-01-29T17:29:08;0.70;99.90
11112;DHT22;5609;49.466;8.468;2023-01-29T17:31:41;0.60;99.90
11112;DHT22;5609;49.466;8.468;2023-01-29T17:34:10;0.60;99.90
11112;DHT22;5609;49.466;8.468;2023-01-29T17:36:38;0.60;99.90
11112;DHT22;5609;49.466;8.468;2023-01-29T17:39:12;0.50;99.90